Maquinchao, Argentina
Current Conditions -  °F | °C
As of 6:00 AM on Saturday 20 Dec 2014 (Local Time) from SAZS Reporting Station
Scattered Clouds Scattered Clouds  
Wind Chill: 27°   Ceiling: Unl
Heat Index: 36°   Visibility: 6mi
Dew Point: 27°   Wind: 14mph
Humidity: 70%   Direction: 290°WNW
Pressure: 29.8"   Gusts: NA
Location:  41.25°S, 68.72°W
Report Text: SAZS 200900Z 29012KT 9999 SCT025 FEW030 02/M03 Q1009
Loading
Personal Weather Stations






























Interactive Weather Map New forecast layout! Learn more

10-Day Weather Forecast

Advertisements
Track Severe Weather on mobile